Dromore, United Kingdom
Current Conditions -  °F | °C
As of 1:50 PM on Monday 20 Oct 2014 (Local Time) from EGAA Reporting Station
Broken Clouds Broken Clouds  
Wind Chill: 13°   Ceiling: 3100
Heat Index: 13°   Visibility: 6mi
Dew Point: 10°   Wind: 13mph
Humidity: 82%   Direction: 230°SW
Pressure: 29.77"   Gusts: NA
Location:  54.41°N, 6.15°W
Report Text: EGAA 201250Z 23011KT 9999 FEW016 SCT025 BKN031 13/10 Q1008
Loading
Personal Weather Stations






























Interactive Weather Map
Tropical Storm Tracking
New forecast layout! Learn more

10-Day Weather Forecast

Advertisements
Track Severe Weather on mobile